createdAt,value
2018-12-14T00:01:30.676Z,21.33
2018-12-14T00:03:58.759Z,21.00
2018-12-14T00:06:26.844Z,21.93
2018-12-14T00:08:54.916Z,21.30
2018-12-14T00:11:23.016Z,19.30
2018-12-14T00:13:51.067Z,19.77
2018-12-14T00:16:19.146Z,18.40
2018-12-14T00:18:47.191Z,18.53
2018-12-14T00:21:15.342Z,18.30
2018-12-14T00:23:43.514Z,19.10
2018-12-14T00:26:11.587Z,19.67
2018-12-14T00:28:39.633Z,19.37
2018-12-14T00:31:07.817Z,19.50
2018-12-14T00:33:39.207Z,20.20
2018-12-14T00:36:07.302Z,19.17
2018-12-14T00:38:35.633Z,20.23
2018-12-14T00:41:03.699Z,19.17
2018-12-14T00:43:31.774Z,20.13
2018-12-14T00:45:59.839Z,19.17
2018-12-14T00:48:27.922Z,18.90
2018-12-14T00:50:55.971Z,21.67
2018-12-14T00:53:24.162Z,21.93
2018-12-14T00:55:52.309Z,22.20
2018-12-14T00:58:20.393Z,21.03
2018-12-14T01:00:48.449Z,21.97
2018-12-14T01:03:16.566Z,21.77
2018-12-14T01:05:44.663Z,23.80
2018-12-14T01:08:12.757Z,24.63
2018-12-14T01:10:40.792Z,23.83
2018-12-14T01:13:08.884Z,23.83
2018-12-14T01:15:37.135Z,24.83
2018-12-14T01:18:05.170Z,23.70
2018-12-14T01:20:33.238Z,22.67
2018-12-14T01:23:01.280Z,23.97
2018-12-14T01:25:29.320Z,25.03
2018-12-14T01:27:57.394Z,22.70
2018-12-14T01:30:25.444Z,22.43
2018-12-14T01:32:53.480Z,20.33
2018-12-14T01:35:21.550Z,21.57
2018-12-14T01:37:49.575Z,20.63
2018-12-14T01:40:17.657Z,19.93
2018-12-14T01:42:45.702Z,22.03
2018-12-14T01:45:13.728Z,20.93
2018-12-14T01:47:41.792Z,20.17
2018-12-14T01:50:09.858Z,20.43
2018-12-14T01:52:38.024Z,20.77
2018-12-14T01:55:06.292Z,20.37
2018-12-14T01:57:34.562Z,21.43
2018-12-14T02:00:02.622Z,20.97
2018-12-14T02:02:30.664Z,22.13
2018-12-14T02:04:58.709Z,21.50
2018-12-14T02:07:26.755Z,22.23
2018-12-14T02:09:54.807Z,22.53
2018-12-14T02:12:22.877Z,22.67
2018-12-14T02:14:50.919Z,21.57
2018-12-14T02:17:19.012Z,22.53
2018-12-14T02:19:47.041Z,22.53
2018-12-14T02:22:15.097Z,21.23
2018-12-14T02:24:43.138Z,23.10
2018-12-14T02:27:11.207Z,21.33
2018-12-14T02:29:39.297Z,21.63
2018-12-14T02:32:07.456Z,22.47
2018-12-14T02:34:35.619Z,21.70
2018-12-14T02:37:03.774Z,21.87
2018-12-14T02:39:31.825Z,23.10
2018-12-14T02:41:59.903Z,22.47
2018-12-14T02:44:27.952Z,22.57
2018-12-14T02:46:56.012Z,22.63
2018-12-14T02:49:24.058Z,22.10
2018-12-14T02:51:52.131Z,23.90
2018-12-14T02:54:20.173Z,23.43
2018-12-14T02:56:48.259Z,22.50
2018-12-14T02:59:16.325Z,23.77
2018-12-14T03:01:44.393Z,23.10
2018-12-14T03:04:12.448Z,22.57
2018-12-14T03:06:40.522Z,22.60
2018-12-14T03:09:08.577Z,22.00
2018-12-14T03:11:36.690Z,22.27
2018-12-14T03:14:04.721Z,21.90
2018-12-14T03:16:32.898Z,22.03
2018-12-14T03:19:00.917Z,22.63
2018-12-14T03:21:28.964Z,22.60
2018-12-14T03:23:57.047Z,21.97
2018-12-14T03:26:25.082Z,22.70
2018-12-14T03:28:53.153Z,21.73
2018-12-14T03:31:21.209Z,21.73
2018-12-14T03:33:49.260Z,22.00
2018-12-14T03:36:17.419Z,21.17
2018-12-14T03:38:45.496Z,21.03
2018-12-14T03:41:13.543Z,21.23
2018-12-14T03:43:41.628Z,21.40
2018-12-14T03:46:09.654Z,23.53
2018-12-14T03:48:37.721Z,21.43
2018-12-14T03:51:05.766Z,22.37
2018-12-14T03:53:33.841Z,21.63
2018-12-14T03:56:01.902Z,21.80
2018-12-14T03:58:29.960Z,21.70
2018-12-14T04:00:58.018Z,21.63
2018-12-14T04:03:26.179Z,21.33
2018-12-14T04:05:54.345Z,21.30
2018-12-14T04:08:22.386Z,21.27
2018-12-14T04:10:50.461Z,19.53
2018-12-14T04:13:18.507Z,20.17
2018-12-14T04:15:46.583Z,18.37
2018-12-14T04:18:14.679Z,20.13
2018-12-14T04:20:42.746Z,20.10
2018-12-14T04:23:10.806Z,20.00
2018-12-14T04:25:38.976Z,21.37
2018-12-14T04:28:07.039Z,18.63
2018-12-14T04:30:35.196Z,20.00
2018-12-14T04:33:03.301Z,19.33
2018-12-14T04:35:31.436Z,19.73
2018-12-14T04:37:59.500Z,19.33
2018-12-14T04:40:27.586Z,19.50
2018-12-14T04:42:55.744Z,21.57
2018-12-14T04:45:23.828Z,18.47
2018-12-14T04:47:51.944Z,19.97
2018-12-14T04:50:20.021Z,18.70
2018-12-14T04:52:48.073Z,18.17
2018-12-14T04:55:16.129Z,18.30
2018-12-14T04:57:44.231Z,18.13
2018-12-14T05:00:12.385Z,19.33
2018-12-14T05:02:40.425Z,19.07
2018-12-14T05:05:08.613Z,18.97
2018-12-14T05:07:36.636Z,20.93
2018-12-14T05:10:04.861Z,20.23
2018-12-14T05:12:32.948Z,20.83
2018-12-14T05:15:00.985Z,21.13
2018-12-14T05:17:29.153Z,19.93
2018-12-14T05:19:57.205Z,19.40
2018-12-14T05:22:25.259Z,20.47
2018-12-14T05:24:53.283Z,18.80
2018-12-14T05:27:21.464Z,19.17
2018-12-14T05:29:49.622Z,19.87
2018-12-14T05:32:17.653Z,19.70
2018-12-14T05:34:45.728Z,19.83
2018-12-14T05:37:13.793Z,19.37
2018-12-14T05:39:41.838Z,20.80
2018-12-14T05:42:09.912Z,19.83
2018-12-14T05:44:37.942Z,19.90
2018-12-14T05:47:06.006Z,18.93
2018-12-14T05:49:34.024Z,20.23
2018-12-14T05:52:02.076Z,20.40
2018-12-14T05:54:30.178Z,19.50
2018-12-14T05:56:58.208Z,19.67
2018-12-14T05:59:26.252Z,19.77
2018-12-14T06:01:54.280Z,19.33
2018-12-14T06:04:22.340Z,19.10
2018-12-14T06:06:50.374Z,18.83
2018-12-14T06:09:18.432Z,18.77
2018-12-14T06:11:46.488Z,20.27
2018-12-14T06:14:14.567Z,18.80
2018-12-14T06:16:42.639Z,18.33
2018-12-14T06:19:10.717Z,19.00
2018-12-14T06:21:38.796Z,18.70
2018-12-14T06:24:06.853Z,17.37
2018-12-14T06:26:34.928Z,18.83
2018-12-14T06:29:02.977Z,19.93
2018-12-14T06:31:31.080Z,18.43
2018-12-14T06:33:59.111Z,17.20
2018-12-14T06:36:27.188Z,16.83
2018-12-14T06:38:55.234Z,18.57
2018-12-14T06:41:23.293Z,18.00
2018-12-14T06:43:51.335Z,18.10
2018-12-14T06:46:19.377Z,18.43
2018-12-14T06:48:47.423Z,18.70
2018-12-14T06:51:15.827Z,18.23
2018-12-14T06:53:43.887Z,18.07
2018-12-14T06:56:12.012Z,18.60
2018-12-14T06:58:40.085Z,19.67
2018-12-14T07:01:08.155Z,19.00
2018-12-14T07:03:36.317Z,18.20
2018-12-14T07:06:04.399Z,18.97
2018-12-14T07:08:32.477Z,19.63
2018-12-14T07:11:00.528Z,18.60
2018-12-14T07:13:28.607Z,19.23
2018-12-14T07:15:56.639Z,18.93
2018-12-14T07:18:24.727Z,18.73
2018-12-14T07:20:52.772Z,18.67
2018-12-14T07:23:20.821Z,17.87
2018-12-14T07:25:48.910Z,19.30
2018-12-14T07:28:16.973Z,18.47
2018-12-14T07:30:45.028Z,17.97
2018-12-14T07:33:13.074Z,18.93
2018-12-14T07:35:42.026Z,19.40
2018-12-14T07:38:10.384Z,18.50
2018-12-14T07:40:38.466Z,19.63
2018-12-14T07:43:06.504Z,17.73
2018-12-14T07:45:34.570Z,18.13
2018-12-14T07:48:02.617Z,18.70
2018-12-14T07:50:30.675Z,18.87
2018-12-14T07:52:58.758Z,19.57
2018-12-14T07:55:26.902Z,18.67
2018-12-14T07:57:54.993Z,17.60
2018-12-14T08:00:23.052Z,19.77
2018-12-14T08:02:51.110Z,18.97
2018-12-14T08:05:19.309Z,19.47
2018-12-14T08:07:47.361Z,18.87
2018-12-14T08:10:15.401Z,19.17
2018-12-14T08:12:43.580Z,18.03
2018-12-14T08:15:12.443Z,19.23
2018-12-14T08:17:40.514Z,19.43
2018-12-14T08:20:08.575Z,19.03
2018-12-14T08:22:36.633Z,18.97
2018-12-14T08:25:04.977Z,18.47
2018-12-14T08:27:33.052Z,19.47
2018-12-14T08:30:01.088Z,18.23
2018-12-14T08:32:29.107Z,19.57
2018-12-14T08:34:57.289Z,19.27
2018-12-14T08:37:25.328Z,18.23
2018-12-14T08:39:53.396Z,17.93
2018-12-14T08:42:21.533Z,18.93
2018-12-14T08:44:49.621Z,18.60
2018-12-14T08:47:17.722Z,18.77
2018-12-14T08:49:45.792Z,18.93
2018-12-14T08:52:13.939Z,18.47
2018-12-14T08:54:41.988Z,18.63
2018-12-14T08:57:10.096Z,17.90
2018-12-14T08:59:38.150Z,15.97
2018-12-14T09:02:06.219Z,17.83
2018-12-14T09:04:34.273Z,17.63
2018-12-14T09:07:02.309Z,16.97
2018-12-14T09:09:30.368Z,16.43
2018-12-14T09:11:58.424Z,18.10
2018-12-14T09:14:26.530Z,18.90
2018-12-14T09:16:54.747Z,17.10
2018-12-14T09:19:22.796Z,17.33
2018-12-14T09:21:51.299Z,17.87
2018-12-14T09:24:19.342Z,17.63
2018-12-14T09:26:47.428Z,19.27
2018-12-14T09:29:15.703Z,19.07
2018-12-14T09:31:43.898Z,18.20
2018-12-14T09:34:11.988Z,17.20
2018-12-14T09:36:40.066Z,18.13
2018-12-14T09:39:08.100Z,17.63
2018-12-14T09:41:36.174Z,18.77
2018-12-14T09:44:04.350Z,19.57
2018-12-14T09:46:37.000Z,17.43
2018-12-14T09:49:02.511Z,17.30
2018-12-14T09:51:30.580Z,19.23
2018-12-14T09:53:58.655Z,16.90
2018-12-14T09:56:26.704Z,18.90
2018-12-14T09:58:54.775Z,17.30
2018-12-14T10:01:22.839Z,18.20
2018-12-14T10:03:51.019Z,18.73
2018-12-14T10:06:19.141Z,18.43
2018-12-14T10:08:47.194Z,19.97
2018-12-14T10:11:15.499Z,19.43
2018-12-14T10:13:43.633Z,17.97
2018-12-14T10:16:11.903Z,18.53
2018-12-14T10:18:40.191Z,18.37
2018-12-14T10:21:08.286Z,18.67
2018-12-14T10:23:36.323Z,18.07
2018-12-14T10:26:04.386Z,18.87
2018-12-14T10:28:32.453Z,16.17
2018-12-14T10:31:00.546Z,17.90
2018-12-14T10:33:28.604Z,15.70
2018-12-14T10:35:56.667Z,15.80
2018-12-14T10:38:24.711Z,15.60
2018-12-14T10:40:52.840Z,15.73
2018-12-14T10:43:20.885Z,16.77
2018-12-14T10:45:49.122Z,15.53
2018-12-14T10:48:17.177Z,15.70
2018-12-14T10:50:45.235Z,16.60
2018-12-14T10:53:13.303Z,15.13
2018-12-14T10:55:41.374Z,14.77
2018-12-14T10:58:09.543Z,15.60
2018-12-14T11:00:42.873Z,16.40
2018-12-14T11:03:10.933Z,15.77
2018-12-14T11:05:38.998Z,15.37
2018-12-14T11:08:07.075Z,17.60
2018-12-14T11:10:35.105Z,15.27
2018-12-14T11:13:03.178Z,15.87
2018-12-14T11:15:31.200Z,17.13
2018-12-14T11:17:59.408Z,17.10
2018-12-14T11:20:27.452Z,15.83
2018-12-14T11:22:55.516Z,17.27
2018-12-14T11:25:23.580Z,15.60
2018-12-14T11:27:51.642Z,16.77
2018-12-14T11:30:19.692Z,16.57
2018-12-14T11:32:47.760Z,16.60
2018-12-14T11:35:15.848Z,16.70
2018-12-14T11:37:43.889Z,16.50
2018-12-14T11:40:11.992Z,15.30
2018-12-14T11:42:40.023Z,16.07
2018-12-14T11:45:08.506Z,15.80
2018-12-14T11:47:36.579Z,15.80
2018-12-14T11:50:05.499Z,14.73
2018-12-14T11:52:33.589Z,15.23
2018-12-14T11:55:01.654Z,15.63
2018-12-14T11:57:29.739Z,14.20
2018-12-14T11:59:57.818Z,19.30
2018-12-14T12:02:25.890Z,20.03
2018-12-14T12:04:54.009Z,16.57
2018-12-14T12:07:22.067Z,17.73
2018-12-14T12:09:50.141Z,15.70
2018-12-14T12:12:18.314Z,16.00
2018-12-14T12:14:46.477Z,15.73
2018-12-14T12:17:14.536Z,16.20
2018-12-14T12:19:42.593Z,16.03
2018-12-14T12:22:10.667Z,16.33
2018-12-14T12:24:38.721Z,16.57
2018-12-14T12:27:06.795Z,15.17
2018-12-14T12:29:35.845Z,15.43
2018-12-14T12:32:04.045Z,14.77
2018-12-14T12:34:32.118Z,14.30
2018-12-14T12:37:00.274Z,14.20
2018-12-14T12:39:28.300Z,15.30
2018-12-14T12:41:56.368Z,14.80
2018-12-14T12:44:24.447Z,14.67
2018-12-14T12:46:52.585Z,14.57
2018-12-14T12:49:20.668Z,14.60
2018-12-14T12:51:48.838Z,15.83
2018-12-14T12:54:16.942Z,14.30
2018-12-14T12:56:45.007Z,14.93
2018-12-14T12:59:13.068Z,14.23
2018-12-14T13:01:41.144Z,14.20
2018-12-14T13:04:09.209Z,14.27
2018-12-14T13:06:37.272Z,14.03
2018-12-14T13:09:05.869Z,14.53
2018-12-14T13:11:34.034Z,13.33
2018-12-14T13:14:02.115Z,13.23
2018-12-14T13:16:30.161Z,13.27
2018-12-14T13:18:58.210Z,13.57
2018-12-14T13:21:26.277Z,13.63
2018-12-14T13:23:54.323Z,14.87
2018-12-14T13:26:22.391Z,13.37
2018-12-14T13:28:51.818Z,12.63
2018-12-14T13:31:20.039Z,14.77
2018-12-14T13:33:48.084Z,17.47
2018-12-14T13:36:16.171Z,15.50
2018-12-14T13:38:44.254Z,14.67
2018-12-14T13:41:12.344Z,13.40
2018-12-14T13:43:40.409Z,13.23
2018-12-14T13:46:08.540Z,13.97
2018-12-14T13:48:36.624Z,13.83
2018-12-14T13:51:04.723Z,13.83
2018-12-14T13:53:33.185Z,13.73
2018-12-14T13:56:01.215Z,12.90
2018-12-14T13:58:29.260Z,12.47
2018-12-14T14:00:57.322Z,13.83
2018-12-14T14:03:25.383Z,13.83
2018-12-14T14:05:53.424Z,13.40
2018-12-14T14:08:21.517Z,13.70
2018-12-14T14:10:49.570Z,13.50
2018-12-14T14:13:17.644Z,13.40
2018-12-14T14:15:50.726Z,13.40
2018-12-14T14:18:15.788Z,13.67
2018-12-14T14:20:43.886Z,14.07
2018-12-14T14:23:11.947Z,13.13
2018-12-14T14:25:40.154Z,13.57
2018-12-14T14:28:08.226Z,14.23
2018-12-14T14:30:36.300Z,13.67
2018-12-14T14:33:04.405Z,14.57
2018-12-14T14:35:32.455Z,14.53
2018-12-14T14:38:00.527Z,14.03
2018-12-14T14:40:28.594Z,14.40
2018-12-14T14:42:56.674Z,13.33
2018-12-14T14:45:24.721Z,14.87
2018-12-14T14:47:52.794Z,15.07
2018-12-14T14:50:20.987Z,13.47
2018-12-14T14:52:49.063Z,14.10
2018-12-14T14:55:17.177Z,13.50
2018-12-14T14:57:45.390Z,13.63
2018-12-14T15:00:13.423Z,13.47
2018-12-14T15:02:41.493Z,15.00
2018-12-14T15:05:09.568Z,14.37
2018-12-14T15:07:37.591Z,15.00
2018-12-14T15:10:06.181Z,14.90
2018-12-14T15:12:34.226Z,12.37
2018-12-14T15:15:06.658Z,13.57
2018-12-14T15:17:32.415Z,14.10
2018-12-14T15:20:00.471Z,14.03
2018-12-14T15:22:28.536Z,12.87
2018-12-14T15:24:56.604Z,14.73
2018-12-14T15:27:24.671Z,14.17
2018-12-14T15:29:52.738Z,14.20
2018-12-14T15:32:20.815Z,16.67
2018-12-14T15:34:48.865Z,16.07
2018-12-14T15:37:16.936Z,16.97
2018-12-14T15:39:45.009Z,16.23
2018-12-14T15:42:13.075Z,14.93
2018-12-14T15:44:41.186Z,14.33
2018-12-14T15:47:09.285Z,14.73
2018-12-14T15:49:37.407Z,14.07
2018-12-14T15:52:05.445Z,14.83
2018-12-14T15:54:33.492Z,15.97
2018-12-14T15:57:01.565Z,15.80
2018-12-14T15:59:29.636Z,16.40
2018-12-14T16:01:57.710Z,16.77
2018-12-14T16:04:25.779Z,15.43
2018-12-14T16:06:53.861Z,15.10
2018-12-14T16:09:21.919Z,15.83
2018-12-14T16:11:50.042Z,14.77
2018-12-14T16:14:18.127Z,15.03
2018-12-14T16:16:46.307Z,15.80
2018-12-14T16:19:14.400Z,17.07
2018-12-14T16:21:42.482Z,15.33
2018-12-14T16:24:10.517Z,17.23
2018-12-14T16:26:38.566Z,15.90
2018-12-14T16:29:06.640Z,15.93
2018-12-14T16:31:34.716Z,15.90
2018-12-14T16:34:02.802Z,14.27
2018-12-14T16:36:30.884Z,14.43
2018-12-14T16:38:58.938Z,13.97
2018-12-14T16:41:26.990Z,14.87
2018-12-14T16:43:55.069Z,15.53
2018-12-14T16:46:23.170Z,14.33
2018-12-14T16:48:51.220Z,14.67
2018-12-14T16:51:19.274Z,16.40
2018-12-14T16:53:52.683Z,17.07
2018-12-14T16:56:20.870Z,16.93
2018-12-14T16:58:48.900Z,16.10
2018-12-14T17:01:17.108Z,17.30
2018-12-14T17:03:45.183Z,16.20
2018-12-14T17:06:13.259Z,16.20
2018-12-14T17:08:41.333Z,16.70
2018-12-14T17:11:09.379Z,16.00
2018-12-14T17:13:37.434Z,17.00
2018-12-14T17:16:05.475Z,16.83
2018-12-14T17:18:33.613Z,16.73
2018-12-14T17:21:01.756Z,15.50
2018-12-14T17:23:29.802Z,15.93
2018-12-14T17:25:58.856Z,15.33
2018-12-14T17:28:26.950Z,16.53
2018-12-14T17:30:55.017Z,16.93
2018-12-14T17:33:23.079Z,18.27
2018-12-14T17:35:51.148Z,16.47
2018-12-14T17:38:19.178Z,15.60
2018-12-14T17:40:47.308Z,15.50
2018-12-14T17:43:15.342Z,17.53
2018-12-14T17:45:43.469Z,16.67
2018-12-14T17:48:11.548Z,17.37
2018-12-14T17:50:39.707Z,16.40
2018-12-14T17:53:07.789Z,17.27
2018-12-14T17:55:35.900Z,18.20
2018-12-14T17:58:03.958Z,17.80
2018-12-14T18:00:32.005Z,19.07
2018-12-14T18:03:00.111Z,19.13
2018-12-14T18:05:28.151Z,17.37
2018-12-14T18:07:56.199Z,17.93
2018-12-14T18:10:24.272Z,17.67
2018-12-14T18:12:52.375Z,18.23
2018-12-14T18:15:20.525Z,19.80
2018-12-14T18:17:48.609Z,16.40
2018-12-14T18:20:16.645Z,16.90
2018-12-14T18:22:44.943Z,16.77
2018-12-14T18:25:13.324Z,17.00
2018-12-14T18:27:41.400Z,16.47
2018-12-14T18:30:09.475Z,17.00
2018-12-14T18:32:37.579Z,17.20
2018-12-14T18:35:06.396Z,16.90
2018-12-14T18:37:34.441Z,16.87
2018-12-14T18:40:02.507Z,16.30
2018-12-14T18:42:30.631Z,17.30
2018-12-14T18:44:58.722Z,16.00
2018-12-14T18:47:26.790Z,14.60
2018-12-14T18:49:54.890Z,14.63
2018-12-14T18:52:22.948Z,15.17
2018-12-14T18:54:51.022Z,14.80
2018-12-14T18:57:19.096Z,16.13
2018-12-14T18:59:47.182Z,15.37
2018-12-14T19:02:15.264Z,16.67
2018-12-14T19:04:43.324Z,17.13
2018-12-14T19:07:11.535Z,16.73
2018-12-14T19:09:39.659Z,18.50
2018-12-14T19:12:07.702Z,19.23
2018-12-14T19:14:35.893Z,18.97
2018-12-14T19:17:03.963Z,18.90
2018-12-14T19:19:32.072Z,18.23
2018-12-14T19:22:00.121Z,17.10
2018-12-14T19:24:28.182Z,19.03
2018-12-14T19:26:56.234Z,17.37
2018-12-14T19:29:24.335Z,17.53
2018-12-14T19:31:52.394Z,17.40
2018-12-14T19:34:20.434Z,17.60
2018-12-14T19:36:48.516Z,18.57
2018-12-14T19:39:16.677Z,20.63
2018-12-14T19:41:44.942Z,17.60
2018-12-14T19:44:12.998Z,17.23
2018-12-14T19:46:41.107Z,31.90
2018-12-14T19:49:09.174Z,25.00
2018-12-14T19:51:37.258Z,19.77
2018-12-14T19:54:05.310Z,16.47
2018-12-14T19:56:33.406Z,21.23
2018-12-14T19:59:01.442Z,18.30
2018-12-14T20:01:29.511Z,18.17
2018-12-14T20:03:57.585Z,21.27
2018-12-14T20:06:25.686Z,17.93
2018-12-14T20:08:53.789Z,18.20
2018-12-14T20:11:21.849Z,17.17
2018-12-14T20:13:49.905Z,17.50
2018-12-14T20:16:17.997Z,16.70
2018-12-14T20:18:46.055Z,17.40
2018-12-14T20:21:14.112Z,19.63
2018-12-14T20:23:42.190Z,18.27
2018-12-14T20:26:11.356Z,19.87
2018-12-14T20:28:39.524Z,18.90
2018-12-14T20:31:07.613Z,17.77
2018-12-14T20:33:35.687Z,17.60
2018-12-14T20:36:03.776Z,17.03
2018-12-14T20:38:31.862Z,14.73
2018-12-14T20:40:59.929Z,16.60
2018-12-14T20:43:27.999Z,16.57
2018-12-14T20:45:56.091Z,16.10
2018-12-14T20:48:24.185Z,15.87
2018-12-14T20:50:52.243Z,15.77
2018-12-14T20:53:20.317Z,15.23
2018-12-14T20:55:48.454Z,16.10
2018-12-14T20:58:16.632Z,17.00
2018-12-14T21:00:44.674Z,15.20
2018-12-14T21:03:12.777Z,15.00
2018-12-14T21:05:40.845Z,13.73
2018-12-14T21:08:08.918Z,16.00
2018-12-14T21:10:37.003Z,16.13
2018-12-14T21:13:05.127Z,15.83
2018-12-14T21:15:33.216Z,22.03
2018-12-14T21:18:01.282Z,15.77
2018-12-14T21:20:29.377Z,18.13
2018-12-14T21:22:57.485Z,19.63
2018-12-14T21:25:25.672Z,19.53
2018-12-14T21:27:53.735Z,17.43
2018-12-14T21:30:21.814Z,15.90
2018-12-14T21:32:49.902Z,17.10
2018-12-14T21:35:17.960Z,15.57
2018-12-14T21:37:46.034Z,15.50
2018-12-14T21:40:14.224Z,16.47
2018-12-14T21:42:42.421Z,16.50
2018-12-14T21:45:10.614Z,15.13
2018-12-14T21:47:38.690Z,16.20
2018-12-14T21:50:06.841Z,16.67
2018-12-14T21:52:34.946Z,16.00
2018-12-14T21:55:03.003Z,17.20
2018-12-14T21:57:31.068Z,17.47
2018-12-14T21:59:59.201Z,15.13
2018-12-14T22:02:27.283Z,16.93
2018-12-14T22:04:55.403Z,15.97
2018-12-14T22:07:23.469Z,17.27
2018-12-14T22:09:51.579Z,18.63
2018-12-14T22:12:19.695Z,15.80
2018-12-14T22:14:47.843Z,15.80
2018-12-14T22:17:15.960Z,19.07
2018-12-14T22:19:44.021Z,19.53
2018-12-14T22:22:12.167Z,18.00
2018-12-14T22:24:40.208Z,16.17
2018-12-14T22:27:08.295Z,14.87
2018-12-14T22:29:36.359Z,16.83
2018-12-14T22:32:04.415Z,16.83
2018-12-14T22:34:32.539Z,19.77
2018-12-14T22:37:00.612Z,17.07
2018-12-14T22:39:28.874Z,18.87
2018-12-14T22:41:56.966Z,21.73
2018-12-14T22:44:25.060Z,18.37
2018-12-14T22:46:53.148Z,19.00
2018-12-14T22:49:21.211Z,18.27
2018-12-14T22:51:49.288Z,18.23
2018-12-14T22:54:17.348Z,19.73
2018-12-14T22:56:45.450Z,17.33
2018-12-14T22:59:13.546Z,36.53
2018-12-14T23:01:41.694Z,19.10
2018-12-14T23:04:09.726Z,17.23
2018-12-14T23:06:37.905Z,16.80
2018-12-14T23:09:06.800Z,16.50
2018-12-14T23:11:35.157Z,16.27
2018-12-14T23:14:03.339Z,15.10
2018-12-14T23:16:31.439Z,13.80
2018-12-14T23:18:59.741Z,14.13
2018-12-14T23:21:27.831Z,13.23
2018-12-14T23:23:55.913Z,14.53
2018-12-14T23:26:24.001Z,13.60
2018-12-14T23:28:52.038Z,14.37
2018-12-14T23:31:20.115Z,13.77
2018-12-14T23:33:48.177Z,14.80
2018-12-14T23:36:16.356Z,14.77
2018-12-14T23:38:44.422Z,13.27
2018-12-14T23:41:12.481Z,14.07
2018-12-14T23:43:40.519Z,14.00
2018-12-14T23:46:08.629Z,14.57
2018-12-14T23:48:36.708Z,14.20
2018-12-14T23:51:04.759Z,14.47
2018-12-14T23:53:32.839Z,14.67
2018-12-14T23:56:00.873Z,15.80
2018-12-14T23:58:28.965Z,15.33
